createdAt,value
2018-05-26T00:00:22.299Z,19.92
2018-05-26T00:01:22.133Z,19.92
2018-05-26T00:02:22.289Z,19.92
2018-05-26T00:03:22.362Z,19.95
2018-05-26T00:04:22.424Z,19.93
2018-05-26T00:05:22.115Z,19.93
2018-05-26T00:06:22.165Z,19.92
2018-05-26T00:07:22.248Z,19.93
2018-05-26T00:08:22.101Z,19.92
2018-05-26T00:09:22.163Z,19.91
2018-05-26T00:10:22.221Z,19.92
2018-05-26T00:11:22.376Z,19.93
2018-05-26T00:12:22.196Z,19.91
2018-05-26T00:13:22.050Z,19.91
2018-05-26T00:14:22.319Z,19.91
2018-05-26T00:15:22.318Z,19.91
2018-05-26T00:16:22.336Z,19.92
2018-05-26T00:17:22.229Z,19.93
2018-05-26T00:18:22.334Z,19.92
2018-05-26T00:19:22.179Z,19.92
2018-05-26T00:20:22.116Z,19.91
2018-05-26T00:21:22.229Z,19.91
2018-05-26T00:22:22.053Z,19.95
2018-05-26T00:23:22.305Z,19.91
2018-05-26T00:24:22.408Z,19.91
2018-05-26T00:25:22.252Z,19.92
2018-05-26T00:26:22.104Z,19.93
2018-05-26T00:27:22.222Z,19.92
2018-05-26T00:28:22.308Z,19.91
2018-05-26T00:29:22.470Z,19.89
2018-05-26T00:30:22.182Z,19.92
2018-05-26T00:31:22.037Z,19.91
2018-05-26T00:32:22.199Z,19.89
2018-05-26T00:33:22.293Z,19.92
2018-05-26T00:34:22.393Z,19.91
2018-05-26T00:35:22.295Z,19.93
2018-05-26T00:36:22.072Z,19.91
2018-05-26T00:37:22.283Z,19.92
2018-05-26T00:38:22.333Z,19.91
2018-05-26T00:39:22.345Z,19.91
2018-05-26T00:40:22.380Z,19.89
2018-05-26T00:41:22.348Z,19.91
2018-05-26T00:42:22.235Z,19.89
2018-05-26T00:43:22.230Z,19.91
2018-05-26T00:44:22.388Z,19.89
2018-05-26T00:45:22.187Z,19.88
2018-05-26T00:46:22.196Z,19.89
2018-05-26T00:47:22.309Z,19.88
2018-05-26T00:48:22.322Z,19.92
2018-05-26T00:49:22.026Z,19.91
2018-05-26T00:50:22.293Z,19.89
2018-05-26T00:51:22.496Z,19.89
2018-05-26T00:52:22.190Z,19.91
2018-05-26T00:53:22.119Z,19.88
2018-05-26T00:54:22.295Z,19.89
2018-05-26T00:55:22.305Z,19.91
2018-05-26T00:56:22.133Z,19.88
2018-05-26T00:57:22.523Z,19.91
2018-05-26T00:58:22.148Z,19.89
2018-05-26T00:59:22.261Z,19.89
2018-05-26T01:00:22.221Z,19.88
2018-05-26T01:01:22.125Z,19.88
2018-05-26T01:02:22.308Z,19.86
2018-05-26T01:03:22.287Z,19.89
2018-05-26T01:04:22.194Z,19.89
2018-05-26T01:05:22.220Z,19.89
2018-05-26T01:06:22.251Z,19.86
2018-05-26T01:07:22.133Z,19.89
2018-05-26T01:08:22.188Z,19.91
2018-05-26T01:09:22.248Z,19.88
2018-05-26T01:10:22.316Z,19.88
2018-05-26T01:11:22.154Z,19.89
2018-05-26T01:12:22.163Z,19.88
2018-05-26T01:13:22.279Z,19.88
2018-05-26T01:14:22.216Z,19.86
2018-05-26T01:15:22.141Z,19.89
2018-05-26T01:16:22.082Z,19.89
2018-05-26T01:17:22.260Z,19.89
2018-05-26T01:18:22.321Z,19.88
2018-05-26T01:19:22.222Z,19.88
2018-05-26T01:20:22.299Z,19.88
2018-05-26T01:21:22.308Z,19.88
2018-05-26T01:22:22.288Z,19.89
2018-05-26T01:23:22.146Z,19.88
2018-05-26T01:24:22.201Z,19.89
2018-05-26T01:25:22.366Z,19.89
2018-05-26T01:26:22.248Z,19.89
2018-05-26T01:27:22.168Z,19.86
2018-05-26T01:28:22.124Z,19.86
2018-05-26T01:29:22.187Z,19.88
2018-05-26T01:30:22.124Z,19.86
2018-05-26T01:31:22.189Z,19.86
2018-05-26T01:32:22.338Z,19.88
2018-05-26T01:33:22.217Z,19.88
2018-05-26T01:34:22.143Z,19.89
2018-05-26T01:35:22.315Z,19.88
2018-05-26T01:36:22.227Z,19.88
2018-05-26T01:37:22.166Z,19.88
2018-05-26T01:38:22.176Z,19.88
2018-05-26T01:39:22.080Z,19.88
2018-05-26T01:40:22.169Z,19.85
2018-05-26T01:41:22.162Z,19.84
2018-05-26T01:42:22.305Z,19.86
2018-05-26T01:43:22.204Z,19.85
2018-05-26T01:44:22.102Z,19.86
2018-05-26T01:45:22.272Z,19.86
2018-05-26T01:46:22.076Z,19.86
2018-05-26T01:47:22.239Z,19.85
2018-05-26T01:48:22.115Z,19.88
2018-05-26T01:49:22.195Z,19.86
2018-05-26T01:50:22.503Z,19.86
2018-05-26T01:51:22.276Z,19.86
2018-05-26T01:52:22.106Z,19.86
2018-05-26T01:53:22.250Z,19.86
2018-05-26T01:54:22.147Z,19.85
2018-05-26T01:55:22.136Z,19.84
2018-05-26T01:56:22.320Z,19.84
2018-05-26T01:57:21.987Z,19.86
2018-05-26T01:58:22.050Z,19.86
2018-05-26T01:59:22.285Z,19.85
2018-05-26T02:00:22.262Z,19.85
2018-05-26T02:01:22.381Z,19.84
2018-05-26T02:02:22.447Z,19.85
2018-05-26T02:03:22.119Z,19.86
2018-05-26T02:04:22.146Z,19.84
2018-05-26T02:05:22.198Z,19.85
2018-05-26T02:06:22.232Z,19.88
2018-05-26T02:07:22.195Z,19.89
2018-05-26T02:08:22.135Z,19.86
2018-05-26T02:09:22.178Z,19.86
2018-05-26T02:10:22.335Z,19.88
2018-05-26T02:11:22.267Z,19.84
2018-05-26T02:12:22.295Z,19.84
2018-05-26T02:13:22.094Z,19.86
2018-05-26T02:14:22.250Z,19.85
2018-05-26T02:15:22.372Z,19.85
2018-05-26T02:16:22.129Z,19.86
2018-05-26T02:17:22.236Z,19.85
2018-05-26T02:18:22.305Z,19.86
2018-05-26T02:19:22.200Z,19.85
2018-05-26T02:20:22.247Z,19.85
2018-05-26T02:21:22.245Z,19.85
2018-05-26T02:22:22.146Z,19.86
2018-05-26T02:23:22.149Z,19.82
2018-05-26T02:24:22.158Z,19.85
2018-05-26T02:25:22.260Z,19.85
2018-05-26T02:26:22.226Z,19.86
2018-05-26T02:27:22.099Z,19.86
2018-05-26T02:28:22.168Z,19.85
2018-05-26T02:29:22.191Z,19.85
2018-05-26T02:30:22.290Z,19.82
2018-05-26T02:31:44.099Z,19.84
2018-05-26T02:32:22.123Z,19.86
2018-05-26T02:33:22.231Z,19.82
2018-05-26T02:34:22.098Z,19.82
2018-05-26T02:35:22.340Z,19.85
2018-05-26T02:36:32.103Z,19.84
2018-05-26T02:37:22.146Z,19.84
2018-05-26T02:38:22.150Z,19.85
2018-05-26T02:39:22.436Z,19.84
2018-05-26T02:40:22.243Z,19.85
2018-05-26T02:41:22.163Z,19.84
2018-05-26T02:42:22.293Z,19.82
2018-05-26T02:43:22.369Z,19.84
2018-05-26T02:44:22.146Z,19.85
2018-05-26T02:45:22.255Z,19.85
2018-05-26T02:46:22.298Z,19.84
2018-05-26T02:47:22.313Z,19.81
2018-05-26T02:48:22.021Z,19.85
2018-05-26T02:49:22.181Z,19.86
2018-05-26T02:50:22.169Z,19.85
2018-05-26T02:51:22.365Z,19.84
2018-05-26T02:52:22.074Z,19.82
2018-05-26T02:53:22.303Z,19.82
2018-05-26T02:54:22.222Z,19.85
2018-05-26T02:55:22.239Z,19.81
2018-05-26T02:56:22.214Z,19.85
2018-05-26T02:57:22.058Z,19.84
2018-05-26T02:58:22.153Z,19.84
2018-05-26T02:59:22.346Z,19.82
2018-05-26T03:00:22.231Z,19.85
2018-05-26T03:01:22.238Z,19.85
2018-05-26T03:02:22.306Z,19.84
2018-05-26T03:03:22.232Z,19.82
2018-05-26T03:04:22.105Z,19.82
2018-05-26T03:05:22.304Z,19.82
2018-05-26T03:06:22.350Z,19.82
2018-05-26T03:07:22.254Z,19.82
2018-05-26T03:08:22.064Z,19.85
2018-05-26T03:09:22.209Z,19.84
2018-05-26T03:10:22.131Z,19.84
2018-05-26T03:11:22.142Z,19.82
2018-05-26T03:12:22.331Z,19.81
2018-05-26T03:13:22.021Z,19.85
2018-05-26T03:14:22.121Z,19.84
2018-05-26T03:15:22.340Z,19.82
2018-05-26T03:16:22.231Z,19.84
2018-05-26T03:17:22.227Z,19.85
2018-05-26T03:18:22.115Z,19.84
2018-05-26T03:19:22.483Z,19.84
2018-05-26T03:20:22.107Z,19.84
2018-05-26T03:21:22.340Z,19.84
2018-05-26T03:22:22.167Z,19.84
2018-05-26T03:23:22.120Z,19.82
2018-05-26T03:24:22.086Z,19.84
2018-05-26T03:25:22.075Z,19.84
2018-05-26T03:26:22.156Z,19.84
2018-05-26T03:27:22.181Z,19.85
2018-05-26T03:28:22.281Z,19.81
2018-05-26T03:29:22.131Z,19.85
2018-05-26T03:30:22.334Z,19.82
2018-05-26T03:31:22.197Z,19.85
2018-05-26T03:32:22.069Z,19.82
2018-05-26T03:33:22.105Z,19.84
2018-05-26T03:34:22.384Z,19.84
2018-05-26T03:35:22.320Z,19.81
2018-05-26T03:36:22.665Z,19.84
2018-05-26T03:37:22.079Z,19.84
2018-05-26T03:38:22.230Z,19.82
2018-05-26T03:39:22.228Z,19.82
2018-05-26T03:40:22.070Z,19.82
2018-05-26T03:41:22.289Z,19.82
2018-05-26T03:42:22.123Z,19.81
2018-05-26T03:43:22.422Z,19.82
2018-05-26T03:44:22.080Z,19.84
2018-05-26T03:45:22.249Z,19.82
2018-05-26T03:46:22.089Z,19.81
2018-05-26T03:47:21.984Z,19.81
2018-05-26T03:48:22.255Z,19.84
2018-05-26T03:49:22.191Z,19.84
2018-05-26T03:50:22.196Z,19.84
2018-05-26T03:51:22.292Z,19.82
2018-05-26T03:52:22.287Z,19.84
2018-05-26T03:53:22.115Z,19.84
2018-05-26T03:54:22.109Z,19.82
2018-05-26T03:55:22.066Z,19.82
2018-05-26T03:56:22.093Z,19.78
2018-05-26T03:57:22.236Z,19.82
2018-05-26T03:58:22.220Z,19.85
2018-05-26T03:59:22.087Z,19.84
2018-05-26T04:00:22.201Z,19.84
2018-05-26T04:01:22.292Z,19.82
2018-05-26T04:02:22.140Z,19.82
2018-05-26T04:03:22.129Z,19.81
2018-05-26T04:04:22.018Z,19.84
2018-05-26T04:05:22.156Z,19.82
2018-05-26T04:06:22.291Z,19.78
2018-05-26T04:07:22.199Z,19.82
2018-05-26T04:08:22.282Z,19.8
2018-05-26T04:09:22.201Z,19.81
2018-05-26T04:10:22.245Z,19.82
2018-05-26T04:11:22.381Z,19.81
2018-05-26T04:12:22.242Z,19.81
2018-05-26T04:13:22.051Z,19.8
2018-05-26T04:14:22.110Z,19.81
2018-05-26T04:15:22.123Z,19.84
2018-05-26T04:16:22.320Z,19.82
2018-05-26T04:17:22.142Z,19.82
2018-05-26T04:18:22.195Z,19.8
2018-05-26T04:19:22.357Z,19.84
2018-05-26T04:20:22.231Z,19.8
2018-05-26T04:21:22.249Z,19.81
2018-05-26T04:22:22.163Z,19.81
2018-05-26T04:23:22.237Z,19.8
2018-05-26T04:24:22.114Z,19.84
2018-05-26T04:25:22.422Z,19.81
2018-05-26T04:26:22.185Z,19.81
2018-05-26T04:27:22.314Z,19.82
2018-05-26T04:28:22.240Z,19.82
2018-05-26T04:29:22.243Z,19.8
2018-05-26T04:30:22.257Z,19.82
2018-05-26T04:31:22.036Z,19.82
2018-05-26T04:32:22.172Z,19.82
2018-05-26T04:33:22.252Z,19.82
2018-05-26T04:34:22.129Z,19.81
2018-05-26T04:35:22.451Z,19.82
2018-05-26T04:36:22.202Z,19.82
2018-05-26T04:37:22.172Z,19.82
2018-05-26T04:38:22.247Z,19.81
2018-05-26T04:39:22.164Z,19.81
2018-05-26T04:40:32.108Z,19.8
2018-05-26T04:41:22.168Z,19.81
2018-05-26T04:42:21.964Z,19.82
2018-05-26T04:43:22.164Z,19.81
2018-05-26T04:44:22.169Z,19.82
2018-05-26T04:45:22.222Z,19.8
2018-05-26T04:46:22.047Z,19.81
2018-05-26T04:47:22.198Z,19.82
2018-05-26T04:48:22.307Z,19.84
2018-05-26T04:49:22.257Z,19.81
2018-05-26T04:50:22.176Z,19.81
2018-05-26T04:51:22.121Z,19.82
2018-05-26T04:52:22.005Z,19.84
2018-05-26T04:53:22.180Z,19.81
2018-05-26T04:54:22.179Z,19.81
2018-05-26T04:55:22.217Z,19.82
2018-05-26T04:56:22.080Z,19.82
2018-05-26T04:57:22.171Z,19.82
2018-05-26T04:58:22.158Z,19.81
2018-05-26T04:59:22.203Z,19.81
2018-05-26T05:00:22.195Z,19.82
2018-05-26T05:01:22.188Z,19.84
2018-05-26T05:02:22.218Z,19.81
2018-05-26T05:03:22.033Z,19.78
2018-05-26T05:04:22.081Z,19.82
2018-05-26T05:05:22.254Z,19.82
2018-05-26T05:06:22.100Z,19.81
2018-05-26T05:07:22.286Z,19.81
2018-05-26T05:08:22.270Z,19.81
2018-05-26T05:09:22.138Z,19.81
2018-05-26T05:10:22.097Z,19.84
2018-05-26T05:11:22.168Z,19.81
2018-05-26T05:12:21.986Z,19.84
2018-05-26T05:13:22.157Z,19.82
2018-05-26T05:14:22.074Z,19.8
2018-05-26T05:15:22.309Z,19.81
2018-05-26T05:16:22.008Z,19.81
2018-05-26T05:17:22.201Z,19.81
2018-05-26T05:18:22.244Z,19.81
2018-05-26T05:19:22.229Z,19.82
2018-05-26T05:20:22.035Z,19.82
2018-05-26T05:21:22.063Z,19.82
2018-05-26T05:22:22.137Z,19.81
2018-05-26T05:23:22.156Z,19.8
2018-05-26T05:24:22.136Z,19.82
2018-05-26T05:25:22.102Z,19.82
2018-05-26T05:26:22.158Z,19.82
2018-05-26T05:27:22.150Z,19.82
2018-05-26T05:28:22.268Z,19.82
2018-05-26T05:29:22.166Z,19.82
2018-05-26T05:30:22.006Z,19.84
2018-05-26T05:31:22.216Z,19.81
2018-05-26T05:32:22.058Z,19.8
2018-05-26T05:33:22.124Z,19.84
2018-05-26T05:34:22.190Z,19.82
2018-05-26T05:35:22.183Z,19.81
2018-05-26T05:36:22.111Z,19.82
2018-05-26T05:37:22.256Z,19.82
2018-05-26T05:38:22.399Z,19.82
2018-05-26T05:39:21.892Z,19.84
2018-05-26T05:40:22.191Z,19.82
2018-05-26T05:41:22.183Z,19.85
2018-05-26T05:42:22.202Z,19.81
2018-05-26T05:43:22.047Z,19.82
2018-05-26T05:44:22.294Z,19.81
2018-05-26T05:45:22.594Z,19.84
2018-05-26T05:46:22.219Z,19.84
2018-05-26T05:47:22.071Z,19.81
2018-05-26T05:48:22.103Z,19.85
2018-05-26T05:49:22.154Z,19.82
2018-05-26T05:50:22.203Z,19.84
2018-05-26T05:51:21.999Z,19.85
2018-05-26T05:52:22.126Z,19.85
2018-05-26T05:53:22.268Z,19.84
2018-05-26T05:54:22.200Z,19.8
2018-05-26T05:55:22.216Z,19.82
2018-05-26T05:56:22.562Z,19.8
2018-05-26T05:57:21.952Z,19.84
2018-05-26T05:58:21.960Z,19.82
2018-05-26T05:59:22.217Z,19.85
2018-05-26T06:00:22.233Z,19.81
2018-05-26T06:01:22.208Z,19.82
2018-05-26T06:02:22.038Z,19.82
2018-05-26T06:03:22.220Z,19.84
2018-05-26T06:04:22.040Z,19.84
2018-05-26T06:05:22.164Z,19.84
2018-05-26T06:06:22.191Z,19.85
2018-05-26T06:07:22.032Z,19.82
2018-05-26T06:08:22.148Z,19.81
2018-05-26T06:09:22.407Z,19.82
2018-05-26T06:10:22.058Z,19.84
2018-05-26T06:11:22.149Z,19.82
2018-05-26T06:12:22.441Z,19.84
2018-05-26T06:13:22.087Z,19.81
2018-05-26T06:14:22.078Z,19.8
2018-05-26T06:15:22.366Z,19.84
2018-05-26T06:16:22.183Z,19.82
2018-05-26T06:17:22.290Z,19.85
2018-05-26T06:18:22.067Z,19.82
2018-05-26T06:19:22.163Z,19.82
2018-05-26T06:20:22.131Z,19.82
2018-05-26T06:21:22.069Z,19.84
2018-05-26T06:22:22.103Z,19.82
2018-05-26T06:23:22.578Z,19.81
2018-05-26T06:24:21.969Z,19.84
2018-05-26T06:25:21.994Z,19.82
2018-05-26T06:26:22.500Z,19.84
2018-05-26T06:27:22.083Z,19.82
2018-05-26T06:28:22.219Z,19.82
2018-05-26T06:29:22.226Z,19.82
2018-05-26T06:30:22.218Z,19.84
2018-05-26T06:31:22.014Z,19.84
2018-05-26T06:32:22.118Z,19.82
2018-05-26T06:33:21.930Z,19.84
2018-05-26T06:34:22.158Z,19.84
2018-05-26T06:35:22.084Z,19.81
2018-05-26T06:36:22.172Z,19.82
2018-05-26T06:37:22.294Z,19.82
2018-05-26T06:38:22.478Z,19.81
2018-05-26T06:39:22.082Z,19.82
2018-05-26T06:40:22.100Z,19.82
2018-05-26T06:41:22.225Z,19.84
2018-05-26T06:42:22.048Z,19.84
2018-05-26T06:43:22.087Z,19.84
2018-05-26T06:44:22.169Z,19.84
2018-05-26T06:45:24.521Z,19.85
2018-05-26T06:46:22.111Z,19.8
2018-05-26T06:47:22.353Z,19.82
2018-05-26T06:48:22.360Z,19.84
2018-05-26T06:49:22.176Z,19.85
2018-05-26T06:50:22.132Z,19.84
2018-05-26T06:51:22.546Z,19.86
2018-05-26T06:52:22.856Z,19.84
2018-05-26T06:53:22.008Z,19.82
2018-05-26T06:54:22.091Z,19.82
2018-05-26T06:55:21.980Z,19.82
2018-05-26T06:56:22.197Z,19.81
2018-05-26T06:57:22.087Z,19.82
2018-05-26T06:58:22.153Z,19.81
2018-05-26T06:59:22.385Z,19.8
2018-05-26T07:00:22.626Z,19.82
2018-05-26T07:01:22.003Z,19.84
2018-05-26T07:02:22.018Z,19.82
2018-05-26T07:03:22.018Z,19.82
2018-05-26T07:04:22.000Z,19.82
2018-05-26T07:05:22.112Z,19.82
2018-05-26T07:06:22.228Z,19.81
2018-05-26T07:07:22.035Z,19.84
2018-05-26T07:08:22.293Z,19.85
2018-05-26T07:09:21.983Z,19.84
2018-05-26T07:10:21.894Z,19.82
2018-05-26T07:11:22.147Z,19.82
2018-05-26T07:12:22.116Z,19.82
2018-05-26T07:13:21.993Z,19.84
2018-05-26T07:14:21.980Z,19.82
2018-05-26T07:15:22.097Z,19.81
2018-05-26T07:16:22.091Z,19.84
2018-05-26T07:17:22.069Z,19.82
2018-05-26T07:18:22.187Z,19.84
2018-05-26T07:19:22.314Z,19.84
2018-05-26T07:20:22.107Z,19.82
2018-05-26T07:21:22.114Z,19.84
2018-05-26T07:22:22.274Z,19.82
2018-05-26T07:23:22.175Z,19.82
2018-05-26T07:24:22.296Z,19.82
2018-05-26T07:25:22.061Z,19.84
2018-05-26T07:26:22.089Z,19.82
2018-05-26T07:27:22.018Z,19.81
2018-05-26T07:28:22.110Z,19.84
2018-05-26T07:29:22.200Z,19.85
2018-05-26T07:30:22.370Z,19.81
2018-05-26T07:31:22.177Z,19.82
2018-05-26T07:32:22.191Z,19.82
2018-05-26T07:33:22.129Z,19.84
2018-05-26T07:34:22.362Z,19.82
2018-05-26T07:35:22.315Z,19.84
2018-05-26T07:36:22.004Z,19.82
2018-05-26T07:37:22.213Z,19.84
2018-05-26T07:38:22.399Z,19.82
2018-05-26T07:39:21.998Z,19.84
2018-05-26T07:40:22.398Z,19.82
2018-05-26T07:41:22.003Z,19.84
2018-05-26T07:42:22.206Z,19.82
2018-05-26T07:43:22.076Z,19.84
2018-05-26T07:44:22.171Z,19.82
2018-05-26T07:45:22.328Z,19.82
2018-05-26T07:46:22.286Z,19.84
2018-05-26T07:47:22.240Z,19.84
2018-05-26T07:48:22.227Z,19.82
2018-05-26T07:49:22.048Z,19.84
2018-05-26T07:50:22.018Z,19.84
2018-05-26T07:51:22.046Z,19.84
2018-05-26T07:52:22.105Z,19.84
2018-05-26T07:53:22.192Z,19.82
2018-05-26T07:54:21.991Z,19.85
2018-05-26T07:55:22.336Z,19.81
2018-05-26T07:56:22.157Z,19.84
2018-05-26T07:57:22.083Z,19.82
2018-05-26T07:58:22.373Z,19.82
2018-05-26T07:59:22.200Z,19.82
2018-05-26T08:00:22.294Z,19.82
2018-05-26T08:01:22.193Z,19.81
2018-05-26T08:02:21.975Z,19.82
2018-05-26T08:03:21.967Z,19.84
2018-05-26T08:04:22.143Z,19.82
2018-05-26T08:05:22.566Z,19.82
2018-05-26T08:06:22.276Z,19.82
2018-05-26T08:07:22.101Z,19.84
2018-05-26T08:08:21.967Z,19.85
2018-05-26T08:09:21.993Z,19.84
2018-05-26T08:10:22.078Z,19.84
2018-05-26T08:11:21.974Z,19.84
2018-05-26T08:12:21.978Z,19.82
2018-05-26T08:13:22.145Z,19.84
2018-05-26T08:14:22.052Z,19.85
2018-05-26T08:15:22.184Z,19.81
2018-05-26T08:16:21.967Z,19.84
2018-05-26T08:17:23.010Z,19.82
2018-05-26T08:18:22.035Z,19.84
2018-05-26T08:19:22.167Z,19.84
2018-05-26T08:20:22.077Z,19.84
2018-05-26T08:21:22.057Z,19.82
2018-05-26T08:22:22.050Z,19.84
2018-05-26T08:23:22.049Z,19.85
2018-05-26T08:24:22.234Z,19.85
2018-05-26T08:25:21.976Z,19.85
2018-05-26T08:26:22.186Z,19.82
2018-05-26T08:27:22.725Z,19.84
2018-05-26T08:28:22.030Z,19.82
2018-05-26T08:29:22.162Z,19.8
2018-05-26T08:30:21.969Z,19.85
2018-05-26T08:31:22.224Z,19.84
2018-05-26T08:32:22.171Z,19.84
2018-05-26T08:33:22.192Z,19.81
2018-05-26T08:34:21.966Z,19.84
2018-05-26T08:35:22.141Z,19.82
2018-05-26T08:36:22.071Z,19.82
2018-05-26T08:37:22.445Z,19.82
2018-05-26T08:38:22.207Z,19.84
2018-05-26T08:39:21.970Z,19.85
2018-05-26T08:40:22.017Z,19.88
2018-05-26T08:41:22.136Z,19.92
2018-05-26T08:42:22.174Z,19.92
2018-05-26T08:43:22.143Z,19.92
2018-05-26T08:44:22.017Z,19.92
2018-05-26T08:45:22.810Z,19.96
2018-05-26T08:46:22.781Z,19.96
2018-05-26T08:47:22.779Z,19.96
2018-05-26T08:48:22.836Z,19.98
2018-05-26T08:49:22.699Z,19.98
2018-05-26T08:50:22.827Z,20.01
2018-05-26T08:51:25.128Z,20.01
2018-05-26T08:52:22.445Z,20.02
2018-05-26T08:53:24.603Z,20.01
2018-05-26T08:54:24.991Z,20.05
2018-05-26T08:55:22.435Z,20.05
2018-05-26T08:56:22.446Z,20.05
2018-05-26T08:57:25.044Z,20.05
2018-05-26T08:58:22.436Z,20.02
2018-05-26T08:59:22.681Z,20.02
2018-05-26T09:00:22.565Z,20.01
2018-05-26T09:01:21.914Z,20.04
2018-05-26T09:02:23.157Z,19.99
2018-05-26T09:03:23.172Z,20.01
2018-05-26T09:04:22.783Z,20.02
2018-05-26T09:05:22.443Z,20.01
2018-05-26T09:06:22.946Z,20.04
2018-05-26T09:07:22.805Z,20.04
2018-05-26T09:08:22.696Z,20.01
2018-05-26T09:09:23.129Z,20.01
2018-05-26T09:10:22.494Z,20.02
2018-05-26T09:11:22.484Z,20.02
2018-05-26T09:12:22.348Z,20.02
2018-05-26T09:13:22.801Z,20.05
2018-05-26T09:14:22.676Z,20.02
2018-05-26T09:15:23.011Z,20.04
2018-05-26T09:16:22.406Z,20.04
2018-05-26T09:17:22.006Z,20.05
2018-05-26T09:18:22.808Z,20.02
2018-05-26T09:19:22.338Z,20.05
2018-05-26T09:20:21.952Z,20.04
2018-05-26T09:21:25.245Z,20.05
2018-05-26T09:22:23.107Z,20.01
2018-05-26T09:23:22.697Z,20.02
2018-05-26T09:24:23.017Z,20.01
2018-05-26T09:25:22.942Z,19.99
2018-05-26T09:26:21.922Z,19.98
2018-05-26T09:27:22.707Z,19.99
2018-05-26T09:28:22.449Z,19.96
2018-05-26T09:29:22.014Z,19.98
2018-05-26T09:30:22.401Z,19.95
2018-05-26T09:31:22.801Z,19.98
2018-05-26T09:32:22.466Z,19.98
2018-05-26T09:33:22.001Z,19.96
2018-05-26T09:34:21.969Z,19.93
2018-05-26T09:35:22.299Z,19.95
2018-05-26T09:36:23.208Z,19.98
2018-05-26T09:37:21.999Z,19.95
2018-05-26T09:38:22.686Z,19.95
2018-05-26T09:39:22.755Z,19.95
2018-05-26T09:40:22.820Z,19.93
2018-05-26T09:41:22.721Z,19.92
2018-05-26T09:42:23.112Z,19.96
2018-05-26T09:43:22.050Z,19.93
2018-05-26T09:44:22.493Z,19.91
2018-05-26T09:45:22.144Z,19.93
2018-05-26T09:46:21.980Z,19.93
2018-05-26T09:47:22.008Z,19.92
2018-05-26T09:48:22.119Z,19.92
2018-05-26T09:49:21.950Z,19.92
2018-05-26T09:50:22.070Z,19.92
2018-05-26T09:51:21.931Z,19.91
2018-05-26T09:52:22.374Z,19.93
2018-05-26T09:53:21.868Z,19.91
2018-05-26T09:54:21.969Z,19.92
2018-05-26T09:55:22.234Z,19.92
2018-05-26T09:56:22.494Z,19.89
2018-05-26T09:57:22.236Z,19.93
2018-05-26T09:58:22.014Z,19.91
2018-05-26T09:59:22.138Z,19.91
2018-05-26T10:00:22.373Z,19.92
2018-05-26T10:01:21.944Z,19.92
2018-05-26T10:02:21.949Z,19.91
2018-05-26T10:03:22.143Z,19.92
2018-05-26T10:04:23.019Z,19.92
2018-05-26T10:05:22.102Z,19.91
2018-05-26T10:06:22.069Z,19.89
2018-05-26T10:07:22.142Z,19.91
2018-05-26T10:08:21.954Z,19.89
2018-05-26T10:09:22.396Z,19.91
2018-05-26T10:10:21.953Z,19.93
2018-05-26T10:11:22.002Z,19.89
2018-05-26T10:12:22.090Z,19.89
2018-05-26T10:13:22.132Z,19.92
2018-05-26T10:14:22.010Z,19.91
2018-05-26T10:15:22.220Z,19.91
2018-05-26T10:16:22.106Z,19.96
2018-05-26T10:17:22.054Z,19.98
2018-05-26T10:18:22.119Z,19.99
2018-05-26T10:19:22.081Z,20.05
2018-05-26T10:20:21.997Z,20.05
2018-05-26T10:21:22.159Z,20.04
2018-05-26T10:22:22.032Z,20.08
2018-05-26T10:23:21.981Z,20.11
2018-05-26T10:24:22.142Z,20.12
2018-05-26T10:25:22.306Z,20.09
2018-05-26T10:26:22.962Z,20.12
2018-05-26T10:27:22.011Z,20.09
2018-05-26T10:28:22.128Z,20.13
2018-05-26T10:29:21.970Z,20.15
2018-05-26T10:30:22.123Z,20.15
2018-05-26T10:31:22.077Z,20.13
2018-05-26T10:32:22.356Z,20.15
2018-05-26T10:33:22.164Z,20.16
2018-05-26T10:34:22.227Z,20.18
2018-05-26T10:35:22.113Z,20.19
2018-05-26T10:36:21.983Z,20.2
2018-05-26T10:37:21.952Z,20.2
2018-05-26T10:38:22.072Z,20.22
2018-05-26T10:39:22.276Z,20.22
2018-05-26T10:40:22.269Z,20.23
2018-05-26T10:41:22.188Z,20.2
2018-05-26T10:42:22.251Z,20.23
2018-05-26T10:43:22.227Z,20.23
2018-05-26T10:44:22.169Z,20.23
2018-05-26T10:45:22.655Z,20.26
2018-05-26T10:46:22.104Z,20.27
2018-05-26T10:47:21.983Z,20.3
2018-05-26T10:48:21.973Z,20.27
2018-05-26T10:49:22.097Z,20.26
2018-05-26T10:50:22.065Z,20.27
2018-05-26T10:51:22.116Z,20.27
2018-05-26T10:52:22.034Z,20.27
2018-05-26T10:53:22.121Z,20.32
2018-05-26T10:54:21.977Z,20.3
2018-05-26T10:55:21.953Z,20.3
2018-05-26T10:56:21.915Z,20.33
2018-05-26T10:57:22.288Z,20.33
2018-05-26T10:58:22.118Z,20.35
2018-05-26T10:59:22.102Z,20.36
2018-05-26T11:00:22.185Z,20.36
2018-05-26T11:01:22.025Z,20.37
2018-05-26T11:02:22.024Z,20.39
2018-05-26T11:03:22.057Z,20.39
2018-05-26T11:04:22.574Z,20.4
2018-05-26T11:05:21.843Z,20.4
2018-05-26T11:06:22.053Z,20.43
2018-05-26T11:07:22.088Z,20.42
2018-05-26T11:08:22.227Z,20.4
2018-05-26T11:09:22.098Z,20.4
2018-05-26T11:10:21.985Z,20.4
2018-05-26T11:11:21.927Z,20.42
2018-05-26T11:12:22.178Z,20.44
2018-05-26T11:13:22.459Z,20.39
2018-05-26T11:14:21.954Z,20.42
2018-05-26T11:15:22.160Z,20.37
2018-05-26T11:16:23.385Z,20.37
2018-05-26T11:17:22.129Z,20.37
2018-05-26T11:18:22.065Z,20.37
2018-05-26T11:19:22.239Z,20.36
2018-05-26T11:20:22.745Z,20.36
2018-05-26T11:21:22.097Z,20.39
2018-05-26T11:22:22.039Z,20.37
2018-05-26T11:23:22.091Z,20.35
2018-05-26T11:24:22.789Z,20.33
2018-05-26T11:25:22.076Z,20.36
2018-05-26T11:26:22.182Z,20.36
2018-05-26T11:27:22.137Z,20.36
2018-05-26T11:28:22.085Z,20.36
2018-05-26T11:29:22.156Z,20.35
2018-05-26T11:30:22.113Z,20.36
2018-05-26T11:31:21.948Z,20.35
2018-05-26T11:32:22.033Z,20.33
2018-05-26T11:33:22.083Z,20.33
2018-05-26T11:34:22.006Z,20.32
2018-05-26T11:35:22.147Z,20.33
2018-05-26T11:36:22.181Z,20.33
2018-05-26T11:37:22.577Z,20.29
2018-05-26T11:38:22.035Z,20.26
2018-05-26T11:39:22.014Z,20.25
2018-05-26T11:40:22.042Z,20.22
2018-05-26T11:41:22.071Z,20.23
2018-05-26T11:42:21.949Z,20.2
2018-05-26T11:43:22.127Z,20.2
2018-05-26T11:44:22.011Z,20.2
2018-05-26T11:45:22.018Z,20.22
2018-05-26T11:46:21.998Z,20.19
2018-05-26T11:47:22.173Z,20.18
2018-05-26T11:48:22.051Z,20.18
2018-05-26T11:49:21.988Z,20.19
2018-05-26T11:50:21.905Z,20.16
2018-05-26T11:51:22.397Z,20.16
2018-05-26T11:52:21.988Z,20.16
2018-05-26T11:53:22.407Z,20.15
2018-05-26T11:54:22.195Z,20.15
2018-05-26T11:55:21.918Z,20.16
2018-05-26T11:56:22.167Z,20.15
2018-05-26T11:57:22.143Z,20.16
2018-05-26T11:58:21.879Z,20.15
2018-05-26T11:59:21.997Z,20.15
2018-05-26T12:00:22.060Z,20.15
2018-05-26T12:01:22.020Z,20.15
2018-05-26T12:02:22.122Z,20.16
2018-05-26T12:03:22.071Z,20.13
2018-05-26T12:04:22.184Z,20.13
2018-05-26T12:05:21.835Z,20.12
2018-05-26T12:06:22.008Z,20.15
2018-05-26T12:07:22.761Z,20.13
2018-05-26T12:08:21.937Z,20.13
2018-05-26T12:09:21.963Z,20.13
2018-05-26T12:10:22.115Z,20.13
2018-05-26T12:11:22.203Z,20.11
2018-05-26T12:12:22.378Z,20.11
2018-05-26T12:13:22.042Z,20.13
2018-05-26T12:14:22.055Z,20.12
2018-05-26T12:15:21.966Z,20.11
2018-05-26T12:16:22.202Z,20.12
2018-05-26T12:17:22.295Z,20.11
2018-05-26T12:18:22.078Z,20.12
2018-05-26T12:19:21.923Z,20.11
2018-05-26T12:20:22.091Z,20.13
2018-05-26T12:21:22.065Z,20.09
2018-05-26T12:22:22.018Z,20.11
2018-05-26T12:23:22.036Z,20.12
2018-05-26T12:24:22.095Z,20.12
2018-05-26T12:25:22.481Z,20.12
2018-05-26T12:26:21.893Z,20.08
2018-05-26T12:27:22.036Z,20.12
2018-05-26T12:28:22.128Z,20.12
2018-05-26T12:29:21.985Z,20.12
2018-05-26T12:30:21.993Z,20.09
2018-05-26T12:31:22.134Z,20.09
2018-05-26T12:32:22.007Z,20.11
2018-05-26T12:33:21.943Z,20.11
2018-05-26T12:34:22.025Z,20.09
2018-05-26T12:35:21.959Z,20.09
2018-05-26T12:36:22.058Z,20.09
2018-05-26T12:37:22.049Z,20.11
2018-05-26T12:38:22.208Z,20.09
2018-05-26T12:39:21.981Z,20.08
2018-05-26T12:40:22.112Z,20.09
2018-05-26T12:41:22.248Z,20.11
2018-05-26T12:42:21.954Z,20.09
2018-05-26T12:43:22.201Z,20.09
2018-05-26T12:44:21.912Z,20.08
2018-05-26T12:45:22.563Z,20.09
2018-05-26T12:46:21.846Z,20.12
2018-05-26T12:47:22.047Z,20.09
2018-05-26T12:48:22.166Z,20.11
2018-05-26T12:49:21.974Z,20.11
2018-05-26T12:50:22.208Z,20.08
2018-05-26T12:51:21.882Z,20.09
2018-05-26T12:52:22.141Z,20.11
2018-05-26T12:53:21.999Z,20.08